createdAt,value
2023-01-12T00:02:25.614Z,60.60
2023-01-12T00:04:54.089Z,60.50
2023-01-12T00:07:23.661Z,60.50
2023-01-12T00:09:52.215Z,60.50
2023-01-12T00:12:20.705Z,60.50
2023-01-12T00:14:50.739Z,60.40
2023-01-12T00:17:19.667Z,60.50
2023-01-12T00:19:48.115Z,60.40
2023-01-12T00:22:17.707Z,60.40
2023-01-12T00:24:49.844Z,60.20
2023-01-12T00:27:21.228Z,60.40
2023-01-12T00:29:51.407Z,60.10
2023-01-12T00:32:21.984Z,60.10
2023-01-12T00:34:50.401Z,60.80
2023-01-12T00:37:20.584Z,60.00
2023-01-12T00:40:01.256Z,60.70
2023-01-12T00:42:48.457Z,60.10
2023-01-12T00:45:24.864Z,60.20
2023-01-12T00:47:54.567Z,60.20
2023-01-12T00:50:23.414Z,60.30
2023-01-12T00:52:51.765Z,60.30
2023-01-12T00:55:20.102Z,60.30
2023-01-12T00:57:48.493Z,60.40
2023-01-12T01:00:19.901Z,60.30
2023-01-12T01:02:48.462Z,60.40
2023-01-12T01:05:17.835Z,60.40
2023-01-12T01:07:47.370Z,60.40
2023-01-12T01:10:17.339Z,60.40
2023-01-12T01:12:45.938Z,60.40
2023-01-12T01:15:14.533Z,60.30
2023-01-12T01:17:44.226Z,60.30
2023-01-12T01:20:13.607Z,60.20
2023-01-12T01:22:41.951Z,60.00
2023-01-12T01:25:11.045Z,60.00
2023-01-12T01:27:39.419Z,60.00
2023-01-12T01:30:09.880Z,60.00
2023-01-12T01:32:38.239Z,59.90
2023-01-12T01:35:08.699Z,59.90
2023-01-12T01:37:37.057Z,59.80
2023-01-12T01:40:06.333Z,59.80
2023-01-12T01:42:34.733Z,59.70
2023-01-12T01:45:05.467Z,59.80
2023-01-12T01:47:39.534Z,59.80
2023-01-12T01:50:18.647Z,59.90
2023-01-12T01:52:51.563Z,59.80
2023-01-12T01:55:25.091Z,59.90
2023-01-12T01:57:59.384Z,60.00
2023-01-12T02:00:28.257Z,60.00
2023-01-12T02:02:58.351Z,60.10
2023-01-12T02:05:29.212Z,60.20
2023-01-12T02:08:04.506Z,60.30
2023-01-12T02:10:33.087Z,60.40
2023-01-12T02:13:19.021Z,60.30
2023-01-12T02:16:16.184Z,60.30
2023-01-12T02:18:53.854Z,60.30
2023-01-12T02:21:44.692Z,60.20
2023-01-12T02:24:58.122Z,60.20
2023-01-12T02:28:00.562Z,60.30
2023-01-12T02:31:10.171Z,60.20
2023-01-12T02:33:49.828Z,60.30
2023-01-12T02:36:26.942Z,60.30
2023-01-12T02:39:04.653Z,60.30
2023-01-12T02:41:58.438Z,60.40
2023-01-12T02:44:33.246Z,60.40
2023-01-12T02:47:06.929Z,60.40
2023-01-12T02:49:43.288Z,60.50
2023-01-12T02:52:17.230Z,60.40
2023-01-12T02:54:50.520Z,60.30
2023-01-12T02:57:22.096Z,60.30
2023-01-12T02:59:51.752Z,60.20
2023-01-12T03:02:24.581Z,60.20
2023-01-12T03:04:53.204Z,60.10
2023-01-12T03:07:42.914Z,60.10
2023-01-12T03:10:37.169Z,60.00
2023-01-12T03:13:12.358Z,60.00
2023-01-12T03:15:46.707Z,60.00
2023-01-12T03:18:19.968Z,59.90
2023-01-12T03:20:54.771Z,60.00
2023-01-12T03:23:32.871Z,59.90
2023-01-12T03:26:04.101Z,60.00
2023-01-12T03:28:37.007Z,60.00
2023-01-12T03:31:11.024Z,59.90
2023-01-12T03:33:43.686Z,59.90
2023-01-12T03:36:21.726Z,59.90
2023-01-12T03:39:08.742Z,59.90
2023-01-12T03:41:50.016Z,59.90
2023-01-12T03:44:28.787Z,59.90
2023-01-12T03:47:02.908Z,59.90
2023-01-12T03:49:37.549Z,59.90
2023-01-12T03:52:09.283Z,59.80
2023-01-12T03:54:39.530Z,59.80
2023-01-12T03:57:09.096Z,59.80
2023-01-12T03:59:37.561Z,59.80
2023-01-12T04:02:05.915Z,60.40
2023-01-12T04:04:35.831Z,59.80
2023-01-12T04:07:04.184Z,59.70
2023-01-12T04:09:32.609Z,59.70
2023-01-12T04:12:12.947Z,59.80
2023-01-12T04:14:46.164Z,59.80
2023-01-12T04:17:16.276Z,59.80
2023-01-12T04:19:46.037Z,59.80
2023-01-12T04:22:34.274Z,59.80
2023-01-12T04:25:05.206Z,59.80
2023-01-12T04:27:33.603Z,59.90
2023-01-12T04:30:01.913Z,59.80
2023-01-12T04:32:30.293Z,59.90
2023-01-12T04:34:59.951Z,59.80
2023-01-12T04:37:28.291Z,59.80
2023-01-12T04:39:56.733Z,59.80
2023-01-12T04:42:42.415Z,59.80
2023-01-12T04:45:11.984Z,59.90
2023-01-12T04:47:40.385Z,60.00
2023-01-12T04:50:11.982Z,60.70
2023-01-12T04:52:40.464Z,60.00
2023-01-12T04:55:09.692Z,60.00
2023-01-12T04:57:38.243Z,60.00
2023-01-12T05:00:08.644Z,59.90
2023-01-12T05:02:36.982Z,59.90
2023-01-12T05:05:06.391Z,60.70
2023-01-12T05:07:36.221Z,60.00
2023-01-12T05:10:22.200Z,59.80
2023-01-12T05:12:50.587Z,59.80
2023-01-12T05:15:18.961Z,59.80
2023-01-12T05:17:47.246Z,59.70
2023-01-12T05:20:15.718Z,59.70
2023-01-12T05:22:45.387Z,59.70
2023-01-12T05:25:13.703Z,59.60
2023-01-12T05:27:42.074Z,59.60
2023-01-12T05:30:11.945Z,59.70
2023-01-12T05:32:41.359Z,59.70
2023-01-12T05:35:10.789Z,60.10
2023-01-12T05:37:39.093Z,59.70
2023-01-12T05:40:12.138Z,60.30
2023-01-12T05:42:58.194Z,59.80
2023-01-12T05:45:26.538Z,59.70
2023-01-12T05:47:59.190Z,59.70
2023-01-12T05:50:27.522Z,59.80
2023-01-12T05:53:09.125Z,59.80
2023-01-12T05:55:39.845Z,59.80
2023-01-12T05:58:08.291Z,59.80
2023-01-12T06:00:36.789Z,59.80
2023-01-12T06:03:05.196Z,59.80
2023-01-12T06:05:33.532Z,60.20
2023-01-12T06:08:02.903Z,59.80
2023-01-12T06:10:34.364Z,59.80
2023-01-12T06:13:36.289Z,59.70
2023-01-12T06:16:06.560Z,60.40
2023-01-12T06:18:36.061Z,59.70
2023-01-12T06:21:05.078Z,59.70
2023-01-12T06:23:34.873Z,59.70
2023-01-12T06:26:06.175Z,59.70
2023-01-12T06:28:36.844Z,59.70
2023-01-12T06:31:08.377Z,59.60
2023-01-12T06:33:37.162Z,59.60
2023-01-12T06:36:06.774Z,59.50
2023-01-12T06:38:37.153Z,59.60
2023-01-12T06:41:48.238Z,59.60
2023-01-12T06:44:17.953Z,59.50
2023-01-12T06:46:47.100Z,59.60
2023-01-12T06:49:16.603Z,59.60
2023-01-12T06:51:45.001Z,59.60
2023-01-12T06:54:13.402Z,59.60
2023-01-12T06:56:41.726Z,59.60
2023-01-12T06:59:12.563Z,59.60
2023-01-12T07:01:42.688Z,59.70
2023-01-12T07:04:11.133Z,59.60
2023-01-12T07:06:39.453Z,59.60
2023-01-12T07:09:07.951Z,59.60
2023-01-12T07:11:36.274Z,59.70
2023-01-12T07:14:04.733Z,59.60
2023-01-12T07:16:33.794Z,59.60
2023-01-12T07:19:03.634Z,59.60
2023-01-12T07:21:31.981Z,59.60
2023-01-12T07:24:00.617Z,59.50
2023-01-12T07:26:28.966Z,59.60
2023-01-12T07:28:57.298Z,59.60
2023-01-12T07:31:25.755Z,59.50
2023-01-12T07:33:54.528Z,59.50
2023-01-12T07:36:25.876Z,59.50
2023-01-12T07:38:54.310Z,59.50
2023-01-12T07:41:54.909Z,59.50
2023-01-12T07:44:24.474Z,59.50
2023-01-12T07:46:52.777Z,59.40
2023-01-12T07:49:21.115Z,59.40
2023-01-12T07:51:54.207Z,59.50
2023-01-12T07:54:23.144Z,59.50
2023-01-12T07:56:51.573Z,59.60
2023-01-12T07:59:20.062Z,59.50
2023-01-12T08:01:48.669Z,59.50
2023-01-12T08:04:17.229Z,59.50
2023-01-12T08:06:45.586Z,59.50
2023-01-12T08:09:15.262Z,59.40
2023-01-12T08:11:43.675Z,59.50
2023-01-12T08:14:24.197Z,59.50
2023-01-12T08:16:54.430Z,59.50
2023-01-12T08:19:26.210Z,59.70
2023-01-12T08:22:01.165Z,59.50
2023-01-12T08:24:35.793Z,59.40
2023-01-12T08:27:08.538Z,59.40
2023-01-12T08:29:44.011Z,59.40
2023-01-12T08:32:14.212Z,59.40
2023-01-12T08:34:45.122Z,59.40
2023-01-12T08:37:16.251Z,59.30
2023-01-12T08:39:47.381Z,59.30
2023-01-12T08:42:15.857Z,59.40
2023-01-12T08:44:44.971Z,59.20
2023-01-12T08:47:19.477Z,59.20
2023-01-12T08:49:47.996Z,59.20
2023-01-12T08:52:17.436Z,59.10
2023-01-12T08:54:47.544Z,59.30
2023-01-12T08:57:16.314Z,59.00
2023-01-12T08:59:44.691Z,59.10
2023-01-12T09:02:13.825Z,59.00
2023-01-12T09:04:43.014Z,59.10
2023-01-12T09:07:12.816Z,59.10
2023-01-12T09:09:41.186Z,59.00
2023-01-12T09:12:10.982Z,59.00
2023-01-12T09:14:39.552Z,59.00
2023-01-12T09:17:08.343Z,58.90
2023-01-12T09:19:36.766Z,58.90
2023-01-12T09:22:06.286Z,58.80
2023-01-12T09:24:34.616Z,58.70
2023-01-12T09:27:03.025Z,59.10
2023-01-12T09:29:32.721Z,58.80
2023-01-12T09:32:01.093Z,58.80
2023-01-12T09:34:29.706Z,58.80
2023-01-12T09:36:59.665Z,58.70
2023-01-12T09:39:28.921Z,58.80
2023-01-12T09:42:17.183Z,58.70
2023-01-12T09:45:07.005Z,58.80
2023-01-12T09:47:40.160Z,58.70
2023-01-12T09:50:13.667Z,58.80
2023-01-12T09:52:47.683Z,58.70
2023-01-12T09:55:20.648Z,58.60
2023-01-12T09:58:24.189Z,58.60
2023-01-12T10:00:58.001Z,59.10
2023-01-12T10:03:31.356Z,58.50
2023-01-12T10:06:01.605Z,58.60
2023-01-12T10:08:35.395Z,58.50
2023-01-12T10:11:13.319Z,58.40
2023-01-12T10:14:14.967Z,58.50
2023-01-12T10:17:04.026Z,58.40
2023-01-12T10:19:40.898Z,58.30
2023-01-12T10:22:37.191Z,58.50
2023-01-12T10:25:24.156Z,58.40
2023-01-12T10:27:55.059Z,58.30
2023-01-12T10:30:31.549Z,58.50
2023-01-12T10:33:11.199Z,58.40
2023-01-12T10:35:54.746Z,58.40
2023-01-12T10:38:31.384Z,58.40
2023-01-12T10:41:16.971Z,58.30
2023-01-12T10:43:47.420Z,58.20
2023-01-12T10:46:18.378Z,58.30
2023-01-12T10:48:49.697Z,58.20
2023-01-12T10:51:28.129Z,58.20
2023-01-12T10:54:01.047Z,58.20
2023-01-12T10:56:36.638Z,58.80
2023-01-12T10:59:17.106Z,58.50
2023-01-12T11:01:48.901Z,58.30
2023-01-12T11:04:28.301Z,58.30
2023-01-12T11:07:04.997Z,58.30
2023-01-12T11:09:33.722Z,58.40
2023-01-12T11:12:05.324Z,58.30
2023-01-12T11:14:38.006Z,58.30
2023-01-12T11:17:48.837Z,58.40
2023-01-12T11:20:28.279Z,58.40
2023-01-12T11:23:00.621Z,58.40
2023-01-12T11:25:33.472Z,58.40
2023-01-12T11:28:10.030Z,58.50
2023-01-12T11:30:44.563Z,58.50
2023-01-12T11:33:17.762Z,58.50
2023-01-12T11:35:54.174Z,58.50
2023-01-12T11:38:28.564Z,58.60
2023-01-12T11:40:58.695Z,58.60
2023-01-12T11:43:51.015Z,58.60
2023-01-12T11:46:26.611Z,58.60
2023-01-12T11:49:04.787Z,58.70
2023-01-12T11:51:34.643Z,58.70
2023-01-12T11:54:03.194Z,58.70
2023-01-12T11:57:08.263Z,58.70
2023-01-12T11:59:46.285Z,58.70
2023-01-12T12:02:34.083Z,58.70
2023-01-12T12:05:18.113Z,58.90
2023-01-12T12:08:07.077Z,58.90
2023-01-12T12:10:44.704Z,58.90
2023-01-12T12:13:32.200Z,58.90
2023-01-12T12:16:24.701Z,58.90
2023-01-12T12:19:10.465Z,58.90
2023-01-12T12:21:49.660Z,58.80
2023-01-12T12:24:43.519Z,58.70
2023-01-12T12:27:24.365Z,58.70
2023-01-12T12:30:44.204Z,59.30
2023-01-12T12:33:23.844Z,58.70
2023-01-12T12:36:08.391Z,58.80
2023-01-12T12:39:07.153Z,58.80
2023-01-12T12:42:00.796Z,58.90
2023-01-12T12:45:01.947Z,58.90
2023-01-12T12:47:53.277Z,58.90
2023-01-12T12:50:25.805Z,58.90
2023-01-12T12:53:12.089Z,58.90
2023-01-12T12:55:40.820Z,58.90
2023-01-12T12:58:30.942Z,59.00
2023-01-12T13:01:57.531Z,59.00
2023-01-12T13:05:06.367Z,58.90
2023-01-12T13:07:38.999Z,58.90
2023-01-12T13:10:31.176Z,58.90
2023-01-12T13:13:28.683Z,58.90
2023-01-12T13:16:48.248Z,58.90
2023-01-12T13:19:38.776Z,58.90
2023-01-12T13:22:30.045Z,59.00
2023-01-12T13:25:02.218Z,58.90
2023-01-12T13:27:52.509Z,59.00
2023-01-12T13:30:41.910Z,59.00
2023-01-12T13:33:28.178Z,59.20
2023-01-12T13:36:11.499Z,59.20
2023-01-12T13:39:07.525Z,59.20
2023-01-12T13:41:55.089Z,59.30
2023-01-12T13:44:31.654Z,59.20
2023-01-12T13:47:10.042Z,59.80
2023-01-12T13:49:48.045Z,59.50
2023-01-12T13:52:28.473Z,59.20
2023-01-12T13:54:57.881Z,59.20
2023-01-12T13:57:29.268Z,59.20
2023-01-12T14:00:00.057Z,59.10
2023-01-12T14:02:33.163Z,59.20
2023-01-12T14:05:34.090Z,59.10
2023-01-12T14:08:19.671Z,59.20
2023-01-12T14:10:57.419Z,59.20
2023-01-12T14:13:49.324Z,59.20
2023-01-12T14:16:36.420Z,59.30
2023-01-12T14:19:27.007Z,59.20
2023-01-12T14:22:03.428Z,59.40
2023-01-12T14:24:31.907Z,59.50
2023-01-12T14:27:00.228Z,59.30
2023-01-12T14:29:28.563Z,59.30
2023-01-12T14:31:56.942Z,59.30
2023-01-12T14:34:32.954Z,59.30
2023-01-12T14:37:02.834Z,59.40
2023-01-12T14:39:40.969Z,59.40
2023-01-12T14:42:35.747Z,59.40
2023-01-12T14:45:37.987Z,59.50
2023-01-12T14:48:25.311Z,59.50
2023-01-12T14:51:19.109Z,59.60
2023-01-12T14:53:49.548Z,59.60
2023-01-12T14:56:22.073Z,59.60
2023-01-12T14:58:50.681Z,59.60
2023-01-12T15:01:37.664Z,59.80
2023-01-12T15:04:08.350Z,59.70
2023-01-12T15:06:43.411Z,59.60
2023-01-12T15:09:29.228Z,59.70
2023-01-12T15:11:57.744Z,59.70
2023-01-12T15:14:29.199Z,59.70
2023-01-12T15:17:14.926Z,59.70
2023-01-12T15:20:00.979Z,59.70
2023-01-12T15:22:49.242Z,59.70
2023-01-12T15:25:37.919Z,59.80
2023-01-12T15:28:08.696Z,59.80
2023-01-12T15:30:39.368Z,60.50
2023-01-12T15:33:08.060Z,59.90
2023-01-12T15:35:37.007Z,59.90
2023-01-12T15:38:06.722Z,59.90
2023-01-12T15:40:35.374Z,59.90
2023-01-12T15:43:04.817Z,59.90
2023-01-12T15:46:01.299Z,60.00
2023-01-12T15:48:29.674Z,60.10
2023-01-12T15:50:58.589Z,60.00
2023-01-12T15:53:28.327Z,60.00
2023-01-12T15:55:56.686Z,60.10
2023-01-12T15:58:24.992Z,60.10
2023-01-12T16:00:53.507Z,60.10
2023-01-12T16:03:53.645Z,60.20
2023-01-12T16:06:10.406Z,60.20
2023-01-12T16:08:40.464Z,60.20
2023-01-12T16:11:24.335Z,60.30
2023-01-12T16:13:52.864Z,60.30
2023-01-12T16:16:22.301Z,60.50
2023-01-12T16:18:50.619Z,60.50
2023-01-12T16:21:22.572Z,60.40
2023-01-12T16:23:52.337Z,60.50
2023-01-12T16:26:20.807Z,60.40
2023-01-12T16:28:49.162Z,60.40
2023-01-12T16:31:17.511Z,60.40
2023-01-12T16:33:46.219Z,60.40
2023-01-12T16:36:16.157Z,60.50
2023-01-12T16:38:44.606Z,60.80
2023-01-12T16:41:18.899Z,60.70
2023-01-12T16:43:47.557Z,60.90
2023-01-12T16:46:17.246Z,60.90
2023-01-12T16:48:48.016Z,60.90
2023-01-12T16:51:19.631Z,60.80
2023-01-12T16:53:48.410Z,60.80
2023-01-12T16:56:18.608Z,60.90
2023-01-12T16:58:49.157Z,60.80
2023-01-12T17:01:21.193Z,60.90
2023-01-12T17:03:51.163Z,60.80
2023-01-12T17:06:22.632Z,60.80
2023-01-12T17:08:51.165Z,60.80
2023-01-12T17:11:23.884Z,60.80
2023-01-12T17:13:54.955Z,60.80
2023-01-12T17:16:26.081Z,60.80
2023-01-12T17:18:54.934Z,60.80
2023-01-12T17:21:24.569Z,60.70
2023-01-12T17:23:53.409Z,60.80
2023-01-12T17:26:24.060Z,60.80
2023-01-12T17:28:52.586Z,60.70
2023-01-12T17:31:21.445Z,61.40
2023-01-12T17:33:50.676Z,60.60
2023-01-12T17:36:19.305Z,60.60
2023-01-12T17:38:47.653Z,60.70
2023-01-12T17:41:32.051Z,60.70
2023-01-12T17:44:09.960Z,60.70
2023-01-12T17:46:38.883Z,60.80
2023-01-12T17:49:10.442Z,60.70
2023-01-12T17:51:41.485Z,60.60
2023-01-12T17:54:14.002Z,60.60
2023-01-12T17:56:42.615Z,60.60
2023-01-12T17:59:19.022Z,60.60
2023-01-12T18:01:48.390Z,60.70
2023-01-12T18:04:17.236Z,60.60
2023-01-12T18:06:46.243Z,60.50
2023-01-12T18:09:14.851Z,60.40
2023-01-12T18:11:43.306Z,60.40
2023-01-12T18:14:13.845Z,60.40
2023-01-12T18:16:42.244Z,60.40
2023-01-12T18:19:12.955Z,60.30
2023-01-12T18:21:41.283Z,60.30
2023-01-12T18:24:09.707Z,60.20
2023-01-12T18:26:38.800Z,60.20
2023-01-12T18:29:07.899Z,60.20
2023-01-12T18:31:38.396Z,60.10
2023-01-12T18:34:08.311Z,60.00
2023-01-12T18:36:40.928Z,60.10
2023-01-12T18:39:13.579Z,60.40
2023-01-12T18:41:59.214Z,60.10
2023-01-12T18:44:28.079Z,60.00
2023-01-12T18:47:16.899Z,60.10
2023-01-12T18:49:46.321Z,60.10
2023-01-12T18:52:33.026Z,60.20
2023-01-12T18:55:01.596Z,60.10
2023-01-12T18:57:31.916Z,60.10
2023-01-12T19:00:12.693Z,60.10
2023-01-12T19:02:42.562Z,60.90
2023-01-12T19:05:22.315Z,60.10
2023-01-12T19:08:07.699Z,60.10
2023-01-12T19:10:36.029Z,60.10
2023-01-12T19:13:22.133Z,60.00
2023-01-12T19:16:08.243Z,60.00
2023-01-12T19:18:38.487Z,60.00
2023-01-12T19:21:26.842Z,60.00
2023-01-12T19:24:12.894Z,60.10
2023-01-12T19:26:58.766Z,60.00
2023-01-12T19:29:27.351Z,60.00
2023-01-12T19:31:55.734Z,60.00
2023-01-12T19:34:26.219Z,60.00
2023-01-12T19:36:55.396Z,60.00
2023-01-12T19:39:34.413Z,60.00
2023-01-12T19:42:20.431Z,59.90
2023-01-12T19:44:48.727Z,59.90
2023-01-12T19:47:17.071Z,60.00
2023-01-12T19:49:46.838Z,60.00
2023-01-12T19:52:15.158Z,60.00
2023-01-12T19:54:43.508Z,59.90
2023-01-12T19:57:11.788Z,59.90
2023-01-12T19:59:40.148Z,59.90
2023-01-12T20:02:10.518Z,59.90
2023-01-12T20:04:39.152Z,59.90
2023-01-12T20:07:09.980Z,59.90
2023-01-12T20:09:38.551Z,59.90
2023-01-12T20:12:07.723Z,59.90
2023-01-12T20:14:36.043Z,59.90
2023-01-12T20:17:05.600Z,60.50
2023-01-12T20:19:34.280Z,59.80
2023-01-12T20:22:02.690Z,60.50
2023-01-12T20:24:32.453Z,59.80
2023-01-12T20:27:00.885Z,59.70
2023-01-12T20:29:29.262Z,59.70
2023-01-12T20:31:57.622Z,59.60
2023-01-12T20:34:25.999Z,59.60
2023-01-12T20:36:54.278Z,59.50
2023-01-12T20:39:24.201Z,59.50
2023-01-12T20:41:54.523Z,59.50
2023-01-12T20:44:23.015Z,59.50
2023-01-12T20:46:51.425Z,59.50
2023-01-12T20:49:19.952Z,59.40
2023-01-12T20:51:49.477Z,59.50
2023-01-12T20:54:17.928Z,59.30
2023-01-12T20:56:46.203Z,59.50
2023-01-12T20:59:16.756Z,59.10
2023-01-12T21:01:45.646Z,59.20
2023-01-12T21:04:14.038Z,59.20
2023-01-12T21:06:44.015Z,59.10
2023-01-12T21:09:12.371Z,59.10
2023-01-12T21:11:42.295Z,59.10
2023-01-12T21:14:10.694Z,59.10
2023-01-12T21:16:40.585Z,59.00
2023-01-12T21:19:09.214Z,59.00
2023-01-12T21:21:37.852Z,59.60
2023-01-12T21:24:06.921Z,59.00
2023-01-12T21:26:35.249Z,59.00
2023-01-12T21:29:03.630Z,59.00
2023-01-12T21:31:32.123Z,58.90
2023-01-12T21:34:02.507Z,59.00
2023-01-12T21:36:30.993Z,59.10
2023-01-12T21:38:59.403Z,59.00
2023-01-12T21:41:28.158Z,58.90
2023-01-12T21:43:56.830Z,58.90
2023-01-12T21:46:25.958Z,58.90
2023-01-12T21:48:54.267Z,58.90
2023-01-12T21:51:25.641Z,58.90
2023-01-12T21:53:56.745Z,58.90
2023-01-12T21:56:25.782Z,59.00
2023-01-12T21:58:54.328Z,58.80
2023-01-12T22:01:23.728Z,58.90
2023-01-12T22:03:52.173Z,58.70
2023-01-12T22:06:20.481Z,58.80
2023-01-12T22:08:50.198Z,58.80
2023-01-12T22:11:18.920Z,58.80
2023-01-12T22:13:47.215Z,58.80
2023-01-12T22:16:17.972Z,58.90
2023-01-12T22:18:50.961Z,58.90
2023-01-12T22:21:22.112Z,58.80
2023-01-12T22:23:54.212Z,58.90
2023-01-12T22:26:22.880Z,58.90
2023-01-12T22:28:51.253Z,59.40
2023-01-12T22:31:22.285Z,58.90
2023-01-12T22:34:03.986Z,59.00
2023-01-12T22:36:35.327Z,59.00
2023-01-12T22:39:05.621Z,59.40
2023-01-12T22:41:34.073Z,58.90
2023-01-12T22:44:02.379Z,58.90
2023-01-12T22:46:30.748Z,58.90
2023-01-12T22:49:00.429Z,58.90
2023-01-12T22:51:29.606Z,58.90
2023-01-12T22:54:01.281Z,58.90
2023-01-12T22:56:31.327Z,58.90
2023-01-12T22:59:00.581Z,58.80
2023-01-12T23:01:29.435Z,58.80
2023-01-12T23:03:59.655Z,58.80
2023-01-12T23:06:29.199Z,58.80
2023-01-12T23:08:57.936Z,58.90
2023-01-12T23:11:28.104Z,59.50
2023-01-12T23:13:58.118Z,58.90
2023-01-12T23:16:27.925Z,58.90
2023-01-12T23:18:57.192Z,59.00
2023-01-12T23:21:29.195Z,59.00
2023-01-12T23:24:01.212Z,59.10
2023-01-12T23:26:32.676Z,59.10
2023-01-12T23:29:04.037Z,59.10
2023-01-12T23:31:34.743Z,59.00
2023-01-12T23:34:03.825Z,59.10
2023-01-12T23:36:33.002Z,59.00
2023-01-12T23:39:04.951Z,59.00
2023-01-12T23:41:36.433Z,59.40
2023-01-12T23:44:08.824Z,59.00
2023-01-12T23:46:40.462Z,58.90
2023-01-12T23:49:09.068Z,58.90
2023-01-12T23:51:37.730Z,58.90
2023-01-12T23:54:07.857Z,58.90
2023-01-12T23:56:36.484Z,58.90
2023-01-12T23:59:06.522Z,59.00
